Terminal Aerodrome Forecast
Issued by NWS

Home | Current Version | Previous Version | Text Only | Print | Product List | Glossary On
Versions: 1 2 3 4 5 6 7 8 9 10 11 12
987
FTUS43 KILX 231741
TAFBMI
TAF
KBMI 231741Z 2318/2418 18010KT P6SM SCT040 SCT250
     FM232300 17009KT P6SM SCT030 BKN110
     FM240700 17008KT 4SM -SHRA BR VCTS OVC035CB=

USA.gov is the U.S. government's official web portal to all federal, state and local government web resources and services.